Time,TemperatureF,DewpointF,PressureIn,WindDirection,WindDirectionDegrees,WindSpeedMPH,WindSpeedGustMPH,Humidity,HourlyPrecipIn,Conditions,Clouds,dailyrainin,SoftwareType,DateUTC
2013-06-05 00:02:00,43.5,32.9,29.93,WSW,250,5.8,8.7,66,0.00,,---,0.00,VWS V14.01,2013-06-05 06:02:00,
2013-06-05 00:07:00,43.3,33.1,29.93,West,262,5.4,8.7,67,0.00,,---,0.00,VWS V14.01,2013-06-05 06:07:00,
2013-06-05 00:12:00,43.0,32.8,29.93,WSW,255,6.7,8.7,67,0.00,,---,0.00,VWS V14.01,2013-06-05 06:12:00,
2013-06-05 00:17:00,42.8,33.0,29.93,West,259,6.3,6.3,68,0.00,,---,0.00,VWS V14.01,2013-06-05 06:17:00,
2013-06-05 00:22:00,42.8,33.0,29.93,WSW,241,4.0,4.0,68,0.00,,---,0.00,VWS V14.01,2013-06-05 06:22:00,
2013-06-05 00:27:00,42.4,32.6,29.93,West,272,5.8,6.3,68,0.00,,---,0.00,VWS V14.01,2013-06-05 06:27:00,
2013-06-05 00:32:00,42.4,32.6,29.93,West,260,5.8,7.2,68,0.00,,---,0.00,VWS V14.01,2013-06-05 06:32:00,
2013-06-05 00:37:00,42.3,32.5,29.93,WSW,250,5.4,8.3,68,0.00,,---,0.00,VWS V14.01,2013-06-05 06:37:00,
2013-06-05 00:42:00,42.3,32.5,29.93,West,267,6.3,7.2,68,0.00,,---,0.00,VWS V14.01,2013-06-05 06:42:00,
2013-06-05 00:47:00,42.1,32.7,29.93,WSW,258,8.1,8.3,69,0.00,,---,0.00,VWS V14.01,2013-06-05 06:47:00,
2013-06-05 00:52:00,41.9,32.5,29.91,WSW,249,4.0,6.3,69,0.00,,---,0.00,VWS V14.01,2013-06-05 06:52:00,
2013-06-05 00:57:00,41.9,32.5,29.91,WNW,298,5.4,5.4,69,0.00,,---,0.00,VWS V14.01,2013-06-05 06:57:00,
2013-06-05 01:02:00,41.9,32.5,29.91,West,259,7.6,7.6,69,0.00,,---,0.00,VWS V14.01,2013-06-05 07:02:00,
2013-06-05 01:07:00,41.7,32.3,29.93,WNW,289,5.8,5.8,69,0.00,,---,0.00,VWS V14.01,2013-06-05 07:07:00,
2013-06-05 01:12:00,41.5,32.1,29.93,WSW,238,7.6,7.6,69,0.00,,---,0.00,VWS V14.01,2013-06-05 07:12:00,
2013-06-05 01:17:00,41.2,32.2,29.93,West,274,5.8,6.3,70,0.00,,---,0.00,VWS V14.01,2013-06-05 07:17:00,
2013-06-05 01:22:00,41.0,32.0,29.93,SW,226,5.4,6.3,70,0.00,,---,0.00,VWS V14.01,2013-06-05 07:22:00,
2013-06-05 01:27:00,40.6,32.0,29.93,West,275,4.9,6.3,71,0.00,,---,0.00,VWS V14.01,2013-06-05 07:27:00,
2013-06-05 01:32:00,40.6,32.0,29.93,SW,222,7.6,7.6,71,0.00,,---,0.00,VWS V14.01,2013-06-05 07:32:00,
2013-06-05 01:37:00,40.5,32.2,29.93,SW,228,6.3,6.3,72,0.00,,---,0.00,VWS V14.01,2013-06-05 07:37:00,
2013-06-05 01:42:00,40.6,32.3,29.93,West,280,6.3,8.1,72,0.00,,---,0.00,VWS V14.01,2013-06-05 07:42:00,
2013-06-05 01:47:00,40.5,32.2,29.93,WSW,242,6.3,6.3,72,0.00,,---,0.00,VWS V14.01,2013-06-05 07:47:00,
2013-06-05 01:52:00,40.6,32.0,29.91,West,260,5.8,5.8,71,0.00,,---,0.00,VWS V14.01,2013-06-05 07:52:00,
2013-06-05 01:57:00,40.6,32.0,29.91,WSW,250,5.8,5.8,71,0.00,,---,0.00,VWS V14.01,2013-06-05 07:57:00,
2013-06-05 02:02:00,40.5,31.8,29.91,WSW,257,8.7,8.7,71,0.00,,---,0.00,VWS V14.01,2013-06-05 08:02:00,
2013-06-05 02:07:00,40.5,31.8,29.93,WSW,251,8.1,8.1,71,0.00,,---,0.00,VWS V14.01,2013-06-05 08:07:00,
2013-06-05 02:12:00,40.1,31.8,29.93,West,270,8.7,8.7,72,0.00,,---,0.00,VWS V14.01,2013-06-05 08:12:00,
2013-06-05 02:17:00,39.9,31.6,29.93,West,271,5.8,7.2,72,0.00,,---,0.00,VWS V14.01,2013-06-05 08:17:00,
2013-06-05 02:22:00,39.9,31.6,29.93,WSW,250,5.8,8.1,72,0.00,,---,0.00,VWS V14.01,2013-06-05 08:22:00,
2013-06-05 02:27:00,39.4,31.1,29.93,WSW,258,5.4,5.8,72,0.00,,---,0.00,VWS V14.01,2013-06-05 08:27:00,
2013-06-05 02:32:00,39.2,31.3,29.93,West,261,6.3,8.3,73,0.00,,---,0.00,VWS V14.01,2013-06-05 08:32:00,
2013-06-05 02:37:00,39.2,31.3,29.91,WSW,246,6.3,6.3,73,0.00,,---,0.00,VWS V14.01,2013-06-05 08:37:00,
2013-06-05 02:42:00,39.4,31.5,29.91,West,279,6.3,11.0,73,0.00,,---,0.00,VWS V14.01,2013-06-05 08:42:00,
2013-06-05 02:47:00,39.6,31.6,29.91,West,263,8.7,8.7,73,0.00,,---,0.00,VWS V14.01,2013-06-05 08:47:00,
2013-06-05 02:52:00,39.6,31.6,29.91,West,272,7.6,7.6,73,0.00,,---,0.00,VWS V14.01,2013-06-05 08:52:00,
2013-06-05 02:57:00,39.2,31.3,29.91,West,273,3.6,4.9,73,0.00,,---,0.00,VWS V14.01,2013-06-05 08:57:00,
2013-06-05 03:02:00,38.8,31.3,29.91,West,276,7.6,7.6,74,0.00,,---,0.00,VWS V14.01,2013-06-05 09:02:00,
2013-06-05 03:07:00,38.8,31.3,29.91,West,278,5.8,5.8,74,0.00,,---,0.00,VWS V14.01,2013-06-05 09:07:00,
2013-06-05 03:12:00,38.8,31.3,29.91,WNW,284,5.8,6.3,74,0.00,,---,0.00,VWS V14.01,2013-06-05 09:12:00,
2013-06-05 03:17:00,38.8,31.3,29.91,West,268,5.8,6.3,74,0.00,,---,0.00,VWS V14.01,2013-06-05 09:17:00,
2013-06-05 03:22:00,38.8,31.3,29.91,WSW,238,7.6,7.6,74,0.00,,---,0.00,VWS V14.01,2013-06-05 09:22:00,
2013-06-05 03:27:00,38.8,31.3,29.91,West,265,6.7,8.7,74,0.00,,---,0.00,VWS V14.01,2013-06-05 09:27:00,
2013-06-05 03:32:00,38.7,31.1,29.91,West,263,5.8,5.8,74,0.00,,---,0.00,VWS V14.01,2013-06-05 09:32:00,
2013-06-05 03:37:00,38.7,31.1,29.91,WNW,284,4.9,5.8,74,0.00,,---,0.00,VWS V14.01,2013-06-05 09:37:00,
2013-06-05 03:42:00,38.3,30.8,29.91,West,266,8.3,10.1,74,0.00,,---,0.00,VWS V14.01,2013-06-05 09:42:00,
2013-06-05 03:47:00,38.1,30.6,29.91,WSW,237,5.8,8.1,74,0.00,,---,0.00,VWS V14.01,2013-06-05 09:47:00,
2013-06-05 03:52:00,38.3,31.1,29.91,SW,222,5.4,8.3,75,0.00,,---,0.00,VWS V14.01,2013-06-05 09:52:00,
2013-06-05 03:57:00,38.1,30.9,29.91,WSW,254,8.3,8.7,75,0.00,,---,0.00,VWS V14.01,2013-06-05 09:57:00,
2013-06-05 04:02:00,38.1,30.9,29.91,SSW,204,8.1,8.1,75,0.00,,---,0.00,VWS V14.01,2013-06-05 10:02:00,
2013-06-05 04:07:00,38.1,30.9,29.91,WSW,249,5.4,8.3,75,0.00,,---,0.00,VWS V14.01,2013-06-05 10:07:00,
2013-06-05 04:12:00,38.3,31.1,29.91,WNW,283,7.6,8.1,75,0.00,,---,0.00,VWS V14.01,2013-06-05 10:12:00,
2013-06-05 04:17:00,38.5,31.3,29.91,West,274,4.9,5.8,75,0.00,,---,0.00,VWS V14.01,2013-06-05 10:17:00,
2013-06-05 04:22:00,38.3,31.1,29.91,West,274,6.3,8.1,75,0.00,,---,0.00,VWS V14.01,2013-06-05 10:22:00,
2013-06-05 04:27:00,38.5,31.3,29.91,West,267,6.3,6.3,75,0.00,,---,0.00,VWS V14.01,2013-06-05 10:27:00,
2013-06-05 04:32:00,38.5,31.3,29.91,WSW,252,7.6,8.1,75,0.00,,---,0.00,VWS V14.01,2013-06-05 10:32:00,
2013-06-05 04:37:00,38.5,30.9,29.91,West,266,6.3,7.6,74,0.00,,---,0.00,VWS V14.01,2013-06-05 10:37:00,
2013-06-05 04:42:00,38.5,30.9,29.91,SW,214,6.3,7.6,74,0.00,,---,0.00,VWS V14.01,2013-06-05 10:42:00,
2013-06-05 04:47:00,38.5,30.9,29.91,West,268,3.6,5.4,74,0.00,,---,0.00,VWS V14.01,2013-06-05 10:47:00,
2013-06-05 04:52:00,38.3,30.8,29.91,West,263,4.9,8.3,74,0.00,,---,0.00,VWS V14.01,2013-06-05 10:52:00,
2013-06-05 04:57:00,38.3,30.8,29.91,SW,235,8.1,8.1,74,0.00,,---,0.00,VWS V14.01,2013-06-05 10:57:00,
2013-06-05 05:02:00,38.3,31.1,29.91,WSW,254,6.3,6.3,75,0.00,,---,0.00,VWS V14.01,2013-06-05 11:02:00,
2013-06-05 05:07:00,38.5,31.3,29.91,WSW,249,5.8,5.8,75,0.00,,---,0.00,VWS V14.01,2013-06-05 11:07:00,
2013-06-05 05:12:00,38.7,31.4,29.91,West,265,5.4,8.1,75,0.00,,---,0.00,VWS V14.01,2013-06-05 11:12:00,
2013-06-05 05:17:00,38.7,31.1,29.91,SSW,199,7.2,8.1,74,0.00,,---,0.00,VWS V14.01,2013-06-05 11:17:00,
2013-06-05 05:22:00,38.8,31.3,29.88,West,281,6.3,7.6,74,0.00,,---,0.00,VWS V14.01,2013-06-05 11:22:00,
2013-06-05 05:27:00,38.5,30.6,29.88,West,259,4.9,5.8,73,0.00,,---,0.00,VWS V14.01,2013-06-05 11:27:00,
2013-06-05 05:32:00,37.9,30.4,29.88,SW,235,5.8,6.7,74,0.00,,---,0.00,VWS V14.01,2013-06-05 11:32:00,
2013-06-05 05:37:00,37.9,30.7,29.88,WSW,241,3.6,6.3,75,0.00,,---,0.00,VWS V14.01,2013-06-05 11:37:00,
2013-06-05 05:42:00,37.9,30.7,29.88,WNW,283,5.8,5.8,75,0.00,,---,0.00,VWS V14.01,2013-06-05 11:42:00,
2013-06-05 05:47:00,38.3,31.4,29.88,WSW,245,6.3,7.6,76,0.00,,---,0.00,VWS V14.01,2013-06-05 11:47:00,
2013-06-05 05:52:00,38.5,31.3,29.88,West,273,5.4,6.3,75,0.00,,---,0.00,VWS V14.01,2013-06-05 11:52:00,
2013-06-05 05:57:00,38.8,31.3,29.88,SW,221,7.6,8.1,74,0.00,,---,0.00,VWS V14.01,2013-06-05 11:57:00,
2013-06-05 06:02:00,38.8,31.3,29.88,SW,232,5.4,5.8,74,0.00,,---,0.00,VWS V14.01,2013-06-05 12:02:00,
2013-06-05 06:07:00,39.0,31.1,29.91,WNW,295,5.4,6.3,73,0.00,,---,0.00,VWS V14.01,2013-06-05 12:07:00,
2013-06-05 06:12:00,39.0,31.1,29.91,WSW,255,5.4,6.3,73,0.00,,---,0.00,VWS V14.01,2013-06-05 12:12:00,
2013-06-05 06:17:00,39.2,31.3,29.91,SW,218,5.8,6.3,73,0.00,,---,0.00,VWS V14.01,2013-06-05 12:17:00,
2013-06-05 06:22:00,39.4,31.5,29.91,WSW,249,4.9,6.3,73,0.00,,---,0.00,VWS V14.01,2013-06-05 12:22:00,
2013-06-05 06:27:00,39.7,31.5,29.91,West,273,5.8,5.8,72,0.00,,---,0.00,VWS V14.01,2013-06-05 12:27:00,
2013-06-05 06:32:00,39.7,31.5,29.91,WSW,254,5.8,6.3,72,0.00,,---,0.00,VWS V14.01,2013-06-05 12:32:00,
2013-06-05 06:37:00,39.7,31.1,29.91,West,279,6.3,6.3,71,0.00,,---,0.00,VWS V14.01,2013-06-05 12:37:00,
2013-06-05 06:42:00,39.7,31.1,29.91,West,274,8.1,8.1,71,0.00,,---,0.00,VWS V14.01,2013-06-05 12:42:00,
2013-06-05 06:47:00,39.7,31.1,29.91,West,264,4.0,4.0,71,0.00,,---,0.00,VWS V14.01,2013-06-05 12:47:00,
2013-06-05 06:52:00,39.9,31.6,29.91,West,276,5.8,5.8,72,0.00,,---,0.00,VWS V14.01,2013-06-05 12:52:00,
2013-06-05 06:57:00,40.5,32.2,29.91,West,280,4.0,4.0,72,0.00,,---,0.00,VWS V14.01,2013-06-05 12:57:00,
2013-06-05 07:02:00,41.2,32.8,29.91,WSW,241,5.8,5.8,72,0.00,,---,0.00,VWS V14.01,2013-06-05 13:02:00,
2013-06-05 07:07:00,41.7,32.7,29.91,West,265,5.4,5.8,70,0.00,,---,0.00,VWS V14.01,2013-06-05 13:07:00,
2013-06-05 07:12:00,41.9,32.5,29.91,WSW,248,5.8,5.8,69,0.00,,---,0.00,VWS V14.01,2013-06-05 13:12:00,
2013-06-05 07:17:00,42.1,32.3,29.91,SW,223,6.3,6.3,68,0.00,,---,0.00,VWS V14.01,2013-06-05 13:17:00,
2013-06-05 07:22:00,42.3,32.1,29.91,WNW,292,4.0,4.0,67,0.00,,---,0.00,VWS V14.01,2013-06-05 13:22:00,
2013-06-05 07:27:00,42.6,32.4,29.91,WNW,297,2.7,2.7,67,0.00,,---,0.00,VWS V14.01,2013-06-05 13:27:00,
2013-06-05 07:32:00,43.2,32.6,29.91,NW,304,4.0,5.4,66,0.00,,---,0.00,VWS V14.01,2013-06-05 13:32:00,
2013-06-05 07:37:00,43.5,32.9,29.91,WNW,294,3.6,4.0,66,0.00,,---,0.00,VWS V14.01,2013-06-05 13:37:00,
2013-06-05 07:42:00,44.1,32.7,29.91,West,280,4.0,4.0,64,0.00,,---,0.00,VWS V14.01,2013-06-05 13:42:00,
2013-06-05 07:47:00,44.4,32.6,29.91,WNW,294,3.1,3.1,63,0.00,,---,0.00,VWS V14.01,2013-06-05 13:47:00,
2013-06-05 07:52:00,45.1,32.9,29.91,West,269,4.0,4.0,62,0.00,,---,0.00,VWS V14.01,2013-06-05 13:52:00,
2013-06-05 07:57:00,45.5,32.8,29.91,WNW,301,4.9,5.8,61,0.00,,---,0.00,VWS V14.01,2013-06-05 13:57:00,
2013-06-05 08:02:00,46.0,33.4,29.91,WNW,297,0.0,0.0,61,0.00,,---,0.00,VWS V14.01,2013-06-05 14:02:00,
2013-06-05 08:07:00,46.6,33.5,29.91,NW,308,2.7,3.1,60,0.00,,---,0.00,VWS V14.01,2013-06-05 14:07:00,
2013-06-05 08:12:00,46.9,33.8,29.91,NW,317,3.6,3.6,60,0.00,,---,0.00,VWS V14.01,2013-06-05 14:12:00,
2013-06-05 08:17:00,47.3,34.1,29.91,NNW,344,2.2,2.2,60,0.00,,---,0.00,VWS V14.01,2013-06-05 14:17:00,
2013-06-05 08:22:00,48.0,34.8,29.91,North,6,0.0,0.0,60,0.00,,---,0.00,VWS V14.01,2013-06-05 14:22:00,
2013-06-05 08:27:00,48.7,35.1,29.91,NE,45,3.6,3.6,59,0.00,,---,0.00,VWS V14.01,2013-06-05 14:27:00,
2013-06-05 08:32:00,49.8,34.8,29.91,NE,48,0.0,0.0,56,0.00,,---,0.00,VWS V14.01,2013-06-05 14:32:00,
2013-06-05 08:37:00,50.0,34.0,29.88,NE,48,0.0,0.0,54,0.00,,---,0.00,VWS V14.01,2013-06-05 14:37:00,
2013-06-05 08:42:00,50.0,33.6,29.88,NE,48,0.0,0.0,53,0.00,,---,0.00,VWS V14.01,2013-06-05 14:42:00,
2013-06-05 08:47:00,49.8,33.4,29.88,NE,47,0.0,0.0,53,0.00,,---,0.00,VWS V14.01,2013-06-05 14:47:00,
2013-06-05 08:52:00,49.8,33.4,29.88,North,11,0.0,0.0,53,0.00,,---,0.00,VWS V14.01,2013-06-05 14:52:00,
2013-06-05 08:57:00,50.7,34.2,29.88,NE,43,0.0,2.2,53,0.00,,---,0.00,VWS V14.01,2013-06-05 14:57:00,
2013-06-05 09:02:00,51.3,34.7,29.88,NE,42,0.0,0.0,53,0.00,,---,0.00,VWS V14.01,2013-06-05 15:02:00,
2013-06-05 09:07:00,51.8,34.8,29.88,NNE,28,3.1,3.6,52,0.00,,---,0.00,VWS V14.01,2013-06-05 15:07:00,
2013-06-05 09:12:00,52.3,34.8,29.88,NNW,329,0.0,0.0,51,0.00,,---,0.00,VWS V14.01,2013-06-05 15:12:00,
2013-06-05 09:17:00,51.8,33.8,29.88,NW,304,3.1,3.1,50,0.00,,---,0.00,VWS V14.01,2013-06-05 15:17:00,
2013-06-05 09:22:00,52.0,34.9,29.88,NW,315,3.6,3.6,52,0.00,,---,0.00,VWS V14.01,2013-06-05 15:22:00,
2013-06-05 09:27:00,52.7,35.6,29.88,WSW,244,4.0,4.0,52,0.00,,---,0.00,VWS V14.01,2013-06-05 15:27:00,
2013-06-05 09:32:00,53.4,35.8,29.88,West,267,2.7,3.6,51,0.00,,---,0.00,VWS V14.01,2013-06-05 15:32:00,
2013-06-05 09:37:00,54.0,35.8,29.88,WNW,296,0.0,0.0,50,0.00,,---,0.00,VWS V14.01,2013-06-05 15:37:00,
2013-06-05 09:42:00,55.0,36.2,29.88,West,263,2.7,4.0,49,0.00,,---,0.00,VWS V14.01,2013-06-05 15:42:00,
2013-06-05 09:47:00,55.9,36.0,29.88,WNW,303,2.2,2.7,47,0.00,,---,0.00,VWS V14.01,2013-06-05 15:47:00,
2013-06-05 09:52:00,57.4,34.5,29.88,NNW,336,0.0,0.0,42,0.00,,---,0.00,VWS V14.01,2013-06-05 15:52:00,
2013-06-05 09:57:00,57.9,35.0,29.88,West,272,0.0,0.0,42,0.00,,---,0.00,VWS V14.01,2013-06-05 15:57:00,
2013-06-05 10:02:00,58.3,34.7,29.88,NNW,331,3.6,3.6,41,0.00,,---,0.00,VWS V14.01,2013-06-05 16:02:00,
2013-06-05 10:07:00,58.5,34.2,29.88,NNW,330,0.0,0.0,40,0.00,,---,0.00,VWS V14.01,2013-06-05 16:07:00,
2013-06-05 10:12:00,59.0,34.1,29.88,NE,53,3.6,3.6,39,0.00,,---,0.00,VWS V14.01,2013-06-05 16:12:00,
2013-06-05 10:17:00,60.4,34.1,29.88,NNE,19,4.9,4.9,37,0.00,,---,0.00,VWS V14.01,2013-06-05 16:17:00,
2013-06-05 10:22:00,61.5,34.3,29.88,NNE,28,3.1,3.6,36,0.00,,---,0.00,VWS V14.01,2013-06-05 16:22:00,
2013-06-05 10:27:00,61.5,34.3,29.88,NNE,30,3.6,4.0,36,0.00,,---,0.00,VWS V14.01,2013-06-05 16:27:00,
2013-06-05 10:32:00,62.2,34.3,29.88,ESE,108,0.0,0.0,35,0.00,,---,0.00,VWS V14.01,2013-06-05 16:32:00,
2013-06-05 10:37:00,62.4,34.4,29.88,ESE,103,4.0,4.0,35,0.00,,---,0.00,VWS V14.01,2013-06-05 16:37:00,
2013-06-05 10:42:00,63.3,34.5,29.88,SSE,159,3.1,5.4,34,0.00,,---,0.00,VWS V14.01,2013-06-05 16:42:00,
2013-06-05 10:47:00,63.3,34.5,29.88,ESE,109,6.3,6.7,34,0.00,,---,0.00,VWS V14.01,2013-06-05 16:47:00,
2013-06-05 10:52:00,62.6,33.9,29.85,ESE,119,5.8,7.6,34,0.00,,---,0.00,VWS V14.01,2013-06-05 16:52:00,
2013-06-05 10:57:00,62.6,33.9,29.85,ESE,117,4.0,5.4,34,0.00,,---,0.00,VWS V14.01,2013-06-05 16:57:00,
2013-06-05 11:02:00,62.8,34.0,29.85,ENE,60,3.6,7.6,34,0.00,,---,0.00,VWS V14.01,2013-06-05 17:02:00,
2013-06-05 11:07:00,63.5,33.9,29.85,SE,133,5.8,10.5,33,0.00,,---,0.00,VWS V14.01,2013-06-05 17:07:00,
2013-06-05 11:12:00,63.1,33.6,29.85,SE,141,7.6,7.6,33,0.00,,---,0.00,VWS V14.01,2013-06-05 17:12:00,
2013-06-05 11:17:00,63.3,33.8,29.85,SSW,209,3.6,4.0,33,0.00,,---,0.00,VWS V14.01,2013-06-05 17:17:00,
2013-06-05 11:22:00,63.9,34.2,29.85,SE,139,4.0,5.8,33,0.00,,---,0.00,VWS V14.01,2013-06-05 17:22:00,
2013-06-05 11:27:00,64.2,34.5,29.85,SW,234,2.7,2.7,33,0.00,,---,0.00,VWS V14.01,2013-06-05 17:27:00,
2013-06-05 11:32:00,64.6,33.3,29.85,WSW,241,2.2,2.2,31,0.00,,---,0.00,VWS V14.01,2013-06-05 17:32:00,
2013-06-05 11:37:00,64.4,34.7,29.85,NNW,328,8.3,8.3,33,0.00,,---,0.00,VWS V14.01,2013-06-05 17:37:00,
2013-06-05 11:42:00,64.4,34.7,29.85,NNW,328,5.4,5.8,33,0.00,,---,0.00,VWS V14.01,2013-06-05 17:42:00,
2013-06-05 11:47:00,65.3,35.5,29.85,NNE,28,5.4,5.4,33,0.00,,---,0.00,VWS V14.01,2013-06-05 17:47:00,
2013-06-05 11:52:00,66.4,37.2,29.85,NNE,31,7.6,7.6,34,0.00,,---,0.00,VWS V14.01,2013-06-05 17:52:00,
2013-06-05 11:57:00,66.7,36.8,29.85,NE,36,7.2,7.2,33,0.00,,---,0.00,VWS V14.01,2013-06-05 17:57:00,
2013-06-05 12:02:00,67.5,37.4,29.85,NE,37,13.2,13.2,33,0.00,,---,0.00,VWS V14.01,2013-06-05 18:02:00,
2013-06-05 12:07:00,68.0,37.1,29.85,NE,56,10.1,10.1,32,0.00,,---,0.00,VWS V14.01,2013-06-05 18:07:00,
2013-06-05 12:12:00,68.7,37.7,29.85,North,9,7.2,7.2,32,0.00,,---,0.00,VWS V14.01,2013-06-05 18:12:00,
2013-06-05 12:17:00,69.3,36.5,29.85,NNE,25,4.0,6.3,30,0.00,,---,0.00,VWS V14.01,2013-06-05 18:17:00,
2013-06-05 12:22:00,68.7,37.7,29.85,NW,312,4.0,5.4,32,0.00,,---,0.00,VWS V14.01,2013-06-05 18:22:00,
2013-06-05 12:27:00,68.2,36.4,29.85,ENE,60,8.1,8.1,31,0.00,,---,0.00,VWS V14.01,2013-06-05 18:27:00,
2013-06-05 12:32:00,68.7,36.9,29.85,ENE,57,3.6,4.9,31,0.00,,---,0.00,VWS V14.01,2013-06-05 18:32:00,
2013-06-05 12:37:00,69.1,38.0,29.85,ENE,62,8.3,8.3,32,0.00,,---,0.00,VWS V14.01,2013-06-05 18:37:00,
2013-06-05 12:42:00,69.3,37.4,29.85,NE,48,9.2,9.2,31,0.00,,---,0.00,VWS V14.01,2013-06-05 18:42:00,
2013-06-05 12:47:00,69.6,36.8,29.85,NNE,26,3.1,6.3,30,0.00,,---,0.00,VWS V14.01,2013-06-05 18:47:00,
2013-06-05 12:52:00,70.0,36.3,29.82,ENE,67,8.3,8.3,29,0.00,,---,0.00,VWS V14.01,2013-06-05 18:52:00,
2013-06-05 12:57:00,70.3,36.6,29.82,ENE,59,6.3,6.3,29,0.00,,---,0.00,VWS V14.01,2013-06-05 18:57:00,
2013-06-05 13:02:00,70.5,35.9,29.82,NE,46,7.6,8.3,28,0.00,,---,0.00,VWS V14.01,2013-06-05 19:02:00,
2013-06-05 13:07:00,70.7,36.9,29.85,NNE,28,8.3,8.3,29,0.00,,---,0.00,VWS V14.01,2013-06-05 19:07:00,
2013-06-05 13:12:00,70.9,37.1,29.85,NE,35,6.7,6.7,29,0.00,,---,0.00,VWS V14.01,2013-06-05 19:12:00,
2013-06-05 13:17:00,70.5,36.8,29.85,NNW,343,3.6,4.0,29,0.00,,---,0.00,VWS V14.01,2013-06-05 19:17:00,
2013-06-05 13:22:00,70.9,37.1,29.85,NE,48,8.1,8.1,29,0.00,,---,0.00,VWS V14.01,2013-06-05 19:22:00,
2013-06-05 13:27:00,71.2,36.5,29.85,NE,45,6.7,7.6,28,0.00,,---,0.00,VWS V14.01,2013-06-05 19:27:00,
2013-06-05 13:32:00,71.1,36.3,29.85,ENE,65,5.8,7.6,28,0.00,,---,0.00,VWS V14.01,2013-06-05 19:32:00,
2013-06-05 13:37:00,71.8,37.8,29.85,NE,35,8.1,8.1,29,0.00,,---,0.00,VWS V14.01,2013-06-05 19:37:00,
2013-06-05 13:42:00,72.3,36.5,29.85,NE,38,4.0,6.3,27,0.00,,---,0.00,VWS V14.01,2013-06-05 19:42:00,
2013-06-05 13:47:00,71.8,37.0,29.85,NE,39,5.8,5.8,28,0.00,,---,0.00,VWS V14.01,2013-06-05 19:47:00,
2013-06-05 13:52:00,71.4,36.7,29.85,ENE,71,4.9,5.4,28,0.00,,---,0.00,VWS V14.01,2013-06-05 19:52:00,
2013-06-05 13:57:00,71.8,37.0,29.85,ENE,64,4.0,4.0,28,0.00,,---,0.00,VWS V14.01,2013-06-05 19:57:00,
2013-06-05 14:02:00,72.3,37.4,29.85,NNE,21,5.4,5.4,28,0.00,,---,0.00,VWS V14.01,2013-06-05 20:02:00,
2013-06-05 14:07:00,72.5,36.7,29.85,ENE,61,7.6,7.6,27,0.00,,---,0.00,VWS V14.01,2013-06-05 20:07:00,
2013-06-05 14:12:00,72.9,37.0,29.85,SE,142,2.2,4.9,27,0.00,,---,0.00,VWS V14.01,2013-06-05 20:12:00,
2013-06-05 14:17:00,72.5,36.7,29.85,NE,55,8.1,8.3,27,0.00,,---,0.00,VWS V14.01,2013-06-05 20:17:00,
2013-06-05 14:22:00,72.5,36.7,29.85,NE,42,3.6,3.6,27,0.00,,---,0.00,VWS V14.01,2013-06-05 20:22:00,
2013-06-05 14:27:00,72.7,36.8,29.85,NNE,23,6.3,7.2,27,0.00,,---,0.00,VWS V14.01,2013-06-05 20:27:00,
2013-06-05 14:32:00,73.4,38.3,29.85,NE,48,4.0,5.8,28,0.00,,---,0.00,VWS V14.01,2013-06-05 20:32:00,
2013-06-05 14:37:00,74.1,39.0,29.85,NE,54,4.9,4.9,28,0.00,,---,0.00,VWS V14.01,2013-06-05 20:37:00,
2013-06-05 14:42:00,74.1,38.0,29.85,NE,49,3.6,3.6,27,0.00,,---,0.00,VWS V14.01,2013-06-05 20:42:00,
2013-06-05 14:47:00,73.8,37.7,29.85,NE,39,6.3,6.3,27,0.00,,---,0.00,VWS V14.01,2013-06-05 20:47:00,
2013-06-05 14:52:00,73.4,37.4,29.85,NE,35,0.0,0.0,27,0.00,,---,0.00,VWS V14.01,2013-06-05 20:52:00,
2013-06-05 14:57:00,73.4,36.5,29.85,ENE,65,9.2,9.2,26,0.00,,---,0.00,VWS V14.01,2013-06-05 20:57:00,
2013-06-05 15:02:00,73.2,37.3,29.85,NE,56,8.1,10.1,27,0.00,,---,0.00,VWS V14.01,2013-06-05 21:02:00,
2013-06-05 15:07:00,73.2,36.3,29.85,NE,44,6.3,8.3,26,0.00,,---,0.00,VWS V14.01,2013-06-05 21:07:00,
2013-06-05 15:12:00,72.9,36.0,29.85,NNE,25,5.8,8.7,26,0.00,,---,0.00,VWS V14.01,2013-06-05 21:12:00,
2013-06-05 15:17:00,72.9,36.0,29.85,NNE,23,2.7,6.3,26,0.00,,---,0.00,VWS V14.01,2013-06-05 21:17:00,
2013-06-05 15:22:00,72.9,37.0,29.82,NE,39,8.1,8.1,27,0.00,,---,0.00,VWS V14.01,2013-06-05 21:22:00,
2013-06-05 15:27:00,72.7,37.7,29.82,NE,51,3.1,7.2,28,0.00,,---,0.00,VWS V14.01,2013-06-05 21:27:00,
2013-06-05 15:32:00,72.7,36.8,29.82,NNW,333,4.9,4.9,27,0.00,,---,0.00,VWS V14.01,2013-06-05 21:32:00,
2013-06-05 15:37:00,72.7,37.7,29.82,NNE,31,7.2,7.2,28,0.00,,---,0.00,VWS V14.01,2013-06-05 21:37:00,
2013-06-05 15:42:00,73.2,38.2,29.82,ENE,57,5.8,5.8,28,0.00,,---,0.00,VWS V14.01,2013-06-05 21:42:00,
2013-06-05 15:47:00,73.9,38.8,29.82,NE,38,5.8,5.8,28,0.00,,---,0.00,VWS V14.01,2013-06-05 21:47:00,
2013-06-05 15:52:00,74.3,38.2,29.82,NNW,329,4.0,6.3,27,0.00,,---,0.00,VWS V14.01,2013-06-05 21:52:00,
2013-06-05 15:57:00,74.1,38.0,29.82,NE,35,10.1,10.1,27,0.00,,---,0.00,VWS V14.01,2013-06-05 21:57:00,
2013-06-05 16:02:00,74.3,38.2,29.82,NE,41,5.8,7.6,27,0.00,,---,0.00,VWS V14.01,2013-06-05 22:02:00,
2013-06-05 16:07:00,74.5,37.4,29.82,NW,317,3.6,6.3,26,0.00,,---,0.00,VWS V14.01,2013-06-05 22:07:00,
2013-06-05 16:12:00,73.9,37.9,29.82,ENE,63,5.8,10.1,27,0.00,,---,0.00,VWS V14.01,2013-06-05 22:12:00,
2013-06-05 16:17:00,73.4,37.4,29.82,NE,34,6.3,10.1,27,0.00,,---,0.00,VWS V14.01,2013-06-05 22:17:00,
2013-06-05 16:22:00,73.0,37.1,29.82,North,1,5.4,8.3,27,0.00,,---,0.00,VWS V14.01,2013-06-05 22:22:00,
2013-06-05 16:27:00,72.5,36.7,29.82,NE,39,2.7,3.6,27,0.00,,---,0.00,VWS V14.01,2013-06-05 22:27:00,
2013-06-05 16:32:00,72.1,36.3,29.82,NNE,24,5.4,5.8,27,0.00,,---,0.00,VWS V14.01,2013-06-05 22:32:00,
2013-06-05 16:37:00,72.0,37.1,29.82,NE,47,3.1,7.2,28,0.00,,---,0.00,VWS V14.01,2013-06-05 22:37:00,
2013-06-05 16:42:00,72.0,38.0,29.82,NNE,33,5.4,5.4,29,0.00,,---,0.00,VWS V14.01,2013-06-05 22:42:00,
2013-06-05 16:47:00,71.8,37.8,29.82,NE,45,3.1,8.7,29,0.00,,---,0.00,VWS V14.01,2013-06-05 22:47:00,
2013-06-05 16:52:00,71.4,37.5,29.82,NNE,27,5.8,5.8,29,0.00,,---,0.00,VWS V14.01,2013-06-05 22:52:00,
2013-06-05 16:57:00,71.6,38.6,29.82,NE,47,7.2,7.2,30,0.00,,---,0.00,VWS V14.01,2013-06-05 22:57:00,
2013-06-05 17:02:00,72.3,39.2,29.82,NNW,332,3.6,4.9,30,0.00,,---,0.00,VWS V14.01,2013-06-05 23:02:00,
2013-06-05 17:07:00,72.7,38.6,29.82,NE,53,5.8,6.3,29,0.00,,---,0.00,VWS V14.01,2013-06-05 23:07:00,
2013-06-05 17:12:00,73.2,38.2,29.82,NE,48,2.7,6.3,28,0.00,,---,0.00,VWS V14.01,2013-06-05 23:12:00,
2013-06-05 17:17:00,73.9,38.8,29.82,NE,46,3.6,6.3,28,0.00,,---,0.00,VWS V14.01,2013-06-05 23:17:00,
2013-06-05 17:22:00,74.3,38.2,29.79,ENE,61,5.4,7.6,27,0.00,,---,0.00,VWS V14.01,2013-06-05 23:22:00,
2013-06-05 17:27:00,74.7,37.5,29.79,NE,45,4.0,5.4,26,0.00,,---,0.00,VWS V14.01,2013-06-05 23:27:00,
2013-06-05 17:32:00,74.8,37.7,29.79,NNE,20,5.4,5.8,26,0.00,,---,0.00,VWS V14.01,2013-06-05 23:32:00,
2013-06-05 17:37:00,75.2,38.0,29.79,ENE,59,5.8,7.6,26,0.00,,---,0.00,VWS V14.01,2013-06-05 23:37:00,
2013-06-05 17:42:00,75.0,36.8,29.79,North,9,2.2,6.3,25,0.00,,---,0.00,VWS V14.01,2013-06-05 23:42:00,
2013-06-05 17:47:00,75.0,36.8,29.79,North,2,5.8,5.8,25,0.00,,---,0.00,VWS V14.01,2013-06-05 23:47:00,
2013-06-05 17:52:00,74.5,37.4,29.82,NE,53,6.3,6.3,26,0.00,,---,0.00,VWS V14.01,2013-06-05 23:52:00,
2013-06-05 17:57:00,74.3,36.2,29.82,East,93,7.6,10.5,25,0.00,,---,0.00,VWS V14.01,2013-06-05 23:57:00,
2013-06-05 18:02:00,73.9,36.9,29.82,NE,43,8.7,8.7,26,0.00,,---,0.00,VWS V14.01,2013-06-06 00:02:00,
2013-06-05 18:07:00,73.9,35.9,29.82,NE,53,4.0,6.3,25,0.00,,---,0.00,VWS V14.01,2013-06-06 00:07:00,
2013-06-05 18:12:00,74.1,36.1,29.82,NE,54,5.4,6.3,25,0.00,,---,0.00,VWS V14.01,2013-06-06 00:12:00,
2013-06-05 18:17:00,74.5,36.4,29.82,NE,38,5.8,5.8,25,0.00,,---,0.00,VWS V14.01,2013-06-06 00:17:00,
2013-06-05 18:22:00,74.7,36.5,29.82,NE,56,4.9,5.8,25,0.00,,---,0.00,VWS V14.01,2013-06-06 00:22:00,
2013-06-05 18:27:00,75.2,37.0,29.82,NNE,33,2.7,4.0,25,0.00,,---,0.00,VWS V14.01,2013-06-06 00:27:00,
2013-06-05 18:32:00,75.2,36.0,29.82,NNE,23,3.6,3.6,24,0.00,,---,0.00,VWS V14.01,2013-06-06 00:32:00,
2013-06-05 18:37:00,74.8,36.7,29.82,NNE,20,5.4,5.4,25,0.00,,---,0.00,VWS V14.01,2013-06-06 00:37:00,
2013-06-05 18:42:00,74.7,35.5,29.82,North,9,2.7,5.4,24,0.00,,---,0.00,VWS V14.01,2013-06-06 00:42:00,
2013-06-05 18:47:00,74.7,35.5,29.82,NNE,33,2.7,4.0,24,0.00,,---,0.00,VWS V14.01,2013-06-06 00:47:00,
2013-06-05 18:52:00,74.8,35.7,29.82,NNE,22,2.7,4.0,24,0.00,,---,0.00,VWS V14.01,2013-06-06 00:52:00,
2013-06-05 18:57:00,74.3,35.2,29.82,North,353,0.0,0.0,24,0.00,,---,0.00,VWS V14.01,2013-06-06 00:57:00,
2013-06-05 19:02:00,73.8,34.8,29.82,NW,313,3.1,3.6,24,0.00,,---,0.00,VWS V14.01,2013-06-06 01:02:00,
2013-06-05 19:07:00,73.8,34.8,29.79,NE,39,3.1,3.1,24,0.00,,---,0.00,VWS V14.01,2013-06-06 01:07:00,
2013-06-05 19:12:00,74.3,35.2,29.79,NE,41,4.0,5.4,24,0.00,,---,0.00,VWS V14.01,2013-06-06 01:12:00,
2013-06-05 19:17:00,74.1,35.1,29.79,NNE,29,5.8,5.8,24,0.00,,---,0.00,VWS V14.01,2013-06-06 01:17:00,
2013-06-05 19:22:00,74.3,34.1,29.79,ENE,65,5.8,5.8,23,0.00,,---,0.00,VWS V14.01,2013-06-06 01:22:00,
2013-06-05 19:27:00,74.3,35.2,29.79,NE,54,5.4,5.4,24,0.00,,---,0.00,VWS V14.01,2013-06-06 01:27:00,
2013-06-05 19:32:00,73.9,33.8,29.79,NNE,29,3.6,4.0,23,0.00,,---,0.00,VWS V14.01,2013-06-06 01:32:00,
2013-06-05 19:37:00,74.1,34.0,29.79,NE,55,3.1,3.6,23,0.00,,---,0.00,VWS V14.01,2013-06-06 01:37:00,
2013-06-05 19:42:00,74.1,34.0,29.79,NNE,12,3.6,3.6,23,0.00,,---,0.00,VWS V14.01,2013-06-06 01:42:00,
2013-06-05 19:47:00,73.6,33.5,29.79,NE,47,2.7,3.1,23,0.00,,---,0.00,VWS V14.01,2013-06-06 01:47:00,
2013-06-05 19:52:00,73.6,33.5,29.79,NNE,29,0.0,0.0,23,0.00,,---,0.00,VWS V14.01,2013-06-06 01:52:00,
2013-06-05 19:57:00,73.6,34.6,29.79,NE,46,2.7,4.0,24,0.00,,---,0.00,VWS V14.01,2013-06-06 01:57:00,
2013-06-05 20:02:00,73.0,34.1,29.79,NNE,21,3.1,4.9,24,0.00,,---,0.00,VWS V14.01,2013-06-06 02:02:00,
2013-06-05 20:07:00,72.3,33.5,29.79,NE,47,0.0,0.0,24,0.00,,---,0.00,VWS V14.01,2013-06-06 02:07:00,
2013-06-05 20:12:00,71.8,33.1,29.79,NE,48,3.1,3.1,24,0.00,,---,0.00,VWS V14.01,2013-06-06 02:12:00,
2013-06-05 20:17:00,71.1,33.5,29.79,North,7,0.0,0.0,25,0.00,,---,0.00,VWS V14.01,2013-06-06 02:17:00,
2013-06-05 20:22:00,70.3,32.9,29.82,North,7,0.0,0.0,25,0.00,,---,0.00,VWS V14.01,2013-06-06 02:22:00,
2013-06-05 20:27:00,69.8,33.4,29.82,NE,39,0.0,0.0,26,0.00,,---,0.00,VWS V14.01,2013-06-06 02:27:00,
2013-06-05 20:32:00,69.4,33.1,29.82,NE,48,0.0,0.0,26,0.00,,---,0.00,VWS V14.01,2013-06-06 02:32:00,
2013-06-05 20:37:00,68.7,33.4,29.79,NE,49,0.0,0.0,27,0.00,,---,0.00,VWS V14.01,2013-06-06 02:37:00,
2013-06-05 20:42:00,68.2,33.9,29.79,NE,49,0.0,0.0,28,0.00,,---,0.00,VWS V14.01,2013-06-06 02:42:00,
2013-06-05 20:47:00,67.3,33.1,29.79,NE,49,0.0,0.0,28,0.00,,---,0.00,VWS V14.01,2013-06-06 02:47:00,
2013-06-05 20:52:00,66.7,33.5,29.79,NE,49,0.0,0.0,29,0.00,,---,0.00,VWS V14.01,2013-06-06 02:52:00,
2013-06-05 20:57:00,66.0,34.5,29.79,NE,49,0.0,0.0,31,0.00,,---,0.00,VWS V14.01,2013-06-06 02:57:00,
2013-06-05 21:02:00,65.7,35.0,29.79,NE,49,0.0,0.0,32,0.00,,---,0.00,VWS V14.01,2013-06-06 03:02:00,
2013-06-05 21:07:00,65.1,35.3,29.82,ENE,76,0.0,0.0,33,0.00,,---,0.00,VWS V14.01,2013-06-06 03:07:00,
2013-06-05 21:12:00,64.4,34.7,29.82,SW,224,0.0,0.0,33,0.00,,---,0.00,VWS V14.01,2013-06-06 03:12:00,
2013-06-05 21:17:00,64.2,35.3,29.82,SW,226,0.0,0.0,34,0.00,,---,0.00,VWS V14.01,2013-06-06 03:17:00,
2013-06-05 21:22:00,64.0,35.1,29.82,SW,229,0.0,0.0,34,0.00,,---,0.00,VWS V14.01,2013-06-06 03:22:00,
2013-06-05 21:27:00,63.9,35.0,29.82,SW,229,0.0,0.0,34,0.00,,---,0.00,VWS V14.01,2013-06-06 03:27:00,
2013-06-05 21:32:00,63.5,35.4,29.82,SW,228,0.0,0.0,35,0.00,,---,0.00,VWS V14.01,2013-06-06 03:32:00,
2013-06-05 21:37:00,62.8,35.5,29.82,WSW,252,0.0,0.0,36,0.00,,---,0.00,VWS V14.01,2013-06-06 03:37:00,
2013-06-05 21:42:00,62.2,35.7,29.82,WSW,252,0.0,0.0,37,0.00,,---,0.00,VWS V14.01,2013-06-06 03:42:00,
2013-06-05 21:47:00,61.9,35.3,29.82,West,265,0.0,0.0,37,0.00,,---,0.00,VWS V14.01,2013-06-06 03:47:00,
2013-06-05 21:52:00,61.3,35.5,29.82,West,268,3.1,3.1,38,0.00,,---,0.00,VWS V14.01,2013-06-06 03:52:00,
2013-06-05 21:57:00,61.0,35.2,29.82,WSW,247,3.1,3.1,38,0.00,,---,0.00,VWS V14.01,2013-06-06 03:57:00,
2013-06-05 22:01:00,60.6,34.9,29.82,WSW,258,2.7,2.7,38,0.00,,---,0.00,VWS V14.01,2013-06-06 04:01:00,
2013-06-05 22:06:00,60.3,34.6,29.82,WSW,258,0.0,0.0,38,0.00,,---,0.00,VWS V14.01,2013-06-06 04:06:00,
2013-06-05 22:11:00,59.9,35.5,29.82,WSW,258,0.0,0.0,40,0.00,,---,0.00,VWS V14.01,2013-06-06 04:11:00,
2013-06-05 22:17:00,59.4,35.1,29.82,West,259,0.0,0.0,40,0.00,,---,0.00,VWS V14.01,2013-06-06 04:17:00,
2013-06-05 22:22:00,59.2,35.5,29.82,West,259,0.0,0.0,41,0.00,,---,0.00,VWS V14.01,2013-06-06 04:22:00,
2013-06-05 22:27:00,59.2,34.3,29.82,WSW,254,3.1,3.1,39,0.00,,---,0.00,VWS V14.01,2013-06-06 04:27:00,
2013-06-05 22:32:00,59.4,33.8,29.82,WSW,250,2.7,3.1,38,0.00,,---,0.00,VWS V14.01,2013-06-06 04:32:00,
2013-06-05 22:37:00,59.7,32.7,29.82,WSW,254,3.1,4.9,36,0.00,,---,0.00,VWS V14.01,2013-06-06 04:37:00,
2013-06-05 22:42:00,59.7,32.7,29.82,WSW,241,3.6,3.6,36,0.00,,---,0.00,VWS V14.01,2013-06-06 04:42:00,
2013-06-05 22:47:00,59.7,32.7,29.82,West,267,0.0,0.0,36,0.00,,---,0.00,VWS V14.01,2013-06-06 04:47:00,
2013-06-05 22:52:00,59.5,32.6,29.82,WNW,287,0.0,0.0,36,0.00,,---,0.00,VWS V14.01,2013-06-06 04:52:00,
2013-06-05 22:57:00,59.4,32.4,29.82,WNW,287,0.0,0.0,36,0.00,,---,0.00,VWS V14.01,2013-06-06 04:57:00,
2013-06-05 23:02:00,59.0,32.8,29.82,WNW,286,0.0,0.0,37,0.00,,---,0.00,VWS V14.01,2013-06-06 05:02:00,
2013-06-05 23:07:00,58.1,32.7,29.82,WNW,287,0.0,0.0,38,0.00,,---,0.00,VWS V14.01,2013-06-06 05:07:00,
2013-06-05 23:12:00,57.7,31.7,29.82,WSW,243,0.0,3.6,37,0.00,,---,0.00,VWS V14.01,2013-06-06 05:12:00,
2013-06-05 23:17:00,57.9,31.8,29.82,West,274,2.7,2.7,37,0.00,,---,0.00,VWS V14.01,2013-06-06 05:17:00,
2013-06-05 23:22:00,57.9,31.8,29.82,WNW,295,3.6,5.4,37,0.00,,---,0.00,VWS V14.01,2013-06-06 05:22:00,
2013-06-05 23:27:00,58.1,32.0,29.82,WNW,302,5.4,5.4,37,0.00,,---,0.00,VWS V14.01,2013-06-06 05:27:00,
2013-06-05 23:32:00,57.7,32.3,29.82,WNW,289,3.1,3.1,38,0.00,,---,0.00,VWS V14.01,2013-06-06 05:32:00,
2013-06-05 23:37:00,57.4,31.3,29.82,West,281,4.0,4.0,37,0.00,,---,0.00,VWS V14.01,2013-06-06 05:37:00,
2013-06-05 23:42:00,57.0,31.7,29.82,WSW,239,2.7,4.0,38,0.00,,---,0.00,VWS V14.01,2013-06-06 05:42:00,
2013-06-05 23:47:00,56.8,31.5,29.82,WSW,241,4.0,4.0,38,0.00,,---,0.00,VWS V14.01,2013-06-06 05:47:00,
2013-06-05 23:52:00,56.7,31.4,29.82,SW,232,2.7,3.1,38,0.00,,---,0.00,VWS V14.01,2013-06-06 05:52:00,
2013-06-05 23:57:00,56.7,31.4,29.82,SW,231,2.2,2.7,38,0.00,,---,0.00,VWS V14.01,2013-06-06 05:57:00,